Bokoshe, Oklahoma
Current Conditions -  °F | °C
As of 2:35 AM on Friday 21 Nov 2014 (Local Time) from KRKR Reporting Station
Overcast Overcast  
Wind Chill: 47°   Ceiling: 2300
Heat Index: 47°   Visibility: 10mi
Dew Point: 40°   Wind: 3mph
Humidity: 76%   Direction: 350°N
Pressure: 30.15"   Gusts: NA
Location:  35.19°N, 94.79°W
Report Text: KRKR 210835Z AUTO 35003KT 10SM OVC023 09/04 A3015 RMK AO2 T00850044
Loading
Personal Weather Stations






























Interactive Weather Map New forecast layout! Learn more

10-Day Weather Forecast

Advertisements
Track Severe Weather on mobile